Time;durP1;ratioP1;P1;durP2;ratioP2;P2;SDS_P1;SDS_P2;PMS_P1;PMS_P2;Temp;Humidity;BMP_temperature;BMP_pressure;BME280_temperature;BME280_humidity;BME280_pressure;Samples;Min_cycle;Max_cycle;Signal;HPM_P1;HPM_P2
2022/09/09 00:01:45;;;;;;;4.15;1.52;;;14.30;99.90;;;;;;5021255;28;20036;-81
2022/09/09 00:04:37;;;;;;;3.72;1.40;;;14.30;99.90;;;;;;5028981;28;20029;-80
2022/09/09 00:07:26;;;;;;;2.97;1.60;;;14.30;99.90;;;;;;5027029;28;20513;-81
2022/09/09 00:09:57;;;;;;;6.00;1.52;;;14.30;99.90;;;;;;5027868;28;20140;-80
2022/09/09 00:12:32;;;;;;;3.00;1.35;;;14.30;99.90;;;;;;5034964;28;20034;-81
2022/09/09 00:15:11;;;;;;;8.32;1.65;;;14.30;99.90;;;;;;5042679;28;20027;-80
2022/09/09 00:17:47;;;;;;;5.88;1.70;;;14.30;99.90;;;;;;5047719;28;20032;-80
2022/09/09 00:20:19;;;;;;;2.28;1.40;;;14.30;99.90;;;;;;5048002;28;20802;-81
2022/09/09 00:22:53;;;;;;;2.95;1.48;;;14.30;99.90;;;;;;5038167;28;20069;-80
2022/09/09 00:25:42;;;;;;;6.90;1.75;;;14.30;99.90;;;;;;5047733;28;20469;-80
2022/09/09 00:28:17;;;;;;;2.83;1.60;;;14.30;99.90;;;;;;5036965;28;20048;-80
2022/09/09 00:30:43;;;;;;;2.60;1.45;;;14.30;99.90;;;;;;5039212;28;20041;-80
2022/09/09 00:33:14;;;;;;;3.10;1.60;;;14.30;99.90;;;;;;5031835;28;20025;-81
2022/09/09 00:35:46;;;;;;;3.63;1.80;;;14.30;99.90;;;;;;5036614;28;20033;-80
2022/09/09 00:38:25;;;;;;;3.83;1.45;;;14.20;99.90;;;;;;5037542;28;20102;-81
2022/09/09 00:41:12;;;;;;;2.63;1.45;;;14.20;99.90;;;;;;5033085;28;20347;-80
2022/09/09 00:43:40;;;;;;;3.10;1.42;;;14.10;99.90;;;;;;5034406;28;20031;-80
2022/09/09 00:46:24;;;;;;;2.20;1.50;;;14.10;99.90;;;;;;5033300;28;20075;-80
2022/09/09 00:49:19;;;;;;;2.80;1.55;;;14.10;99.90;;;;;;5046755;28;20036;-80
2022/09/09 00:51:59;;;;;;;2.80;1.70;;;14.10;99.90;;;;;;5023777;28;20021;-80
2022/09/09 00:54:36;;;;;;;3.50;1.58;;;14.00;99.90;;;;;;5030327;28;20090;-80
2022/09/09 00:57:11;;;;;;;2.35;1.70;;;14.00;99.90;;;;;;5047053;28;20041;-80
2022/09/09 00:59:42;;;;;;;3.63;1.20;;;14.00;99.90;;;;;;5045824;28;20060;-81
2022/09/09 01:02:28;;;;;;;4.38;1.63;;;13.90;99.90;;;;;;5042663;28;20069;-80
2022/09/09 01:04:55;;;;;;;6.47;1.83;;;13.90;99.90;;;;;;5044831;28;20067;-80
2022/09/09 01:07:21;;;;;;;2.88;1.50;;;13.90;99.90;;;;;;5046530;28;20079;-80
2022/09/09 01:10:00;;;;;;;4.78;1.75;;;13.90;99.90;;;;;;5042812;28;20025;-80
2022/09/09 01:12:40;;;;;;;4.47;1.70;;;13.90;99.90;;;;;;5035692;28;20032;-81
2022/09/09 01:15:28;;;;;;;4.47;1.67;;;13.80;99.90;;;;;;5052460;28;20095;-81
2022/09/09 01:18:09;;;;;;;2.72;1.63;;;13.80;99.90;;;;;;5054040;28;20108;-81
2022/09/09 01:21:03;;;;;;;2.33;1.65;;;13.80;99.90;;;;;;5029999;28;20040;-81
2022/09/09 01:23:58;;;;;;;4.53;1.75;;;13.80;99.90;;;;;;5041725;28;20049;-81
2022/09/09 01:26:37;;;;;;;5.38;1.70;;;13.80;99.90;;;;;;5034060;28;20041;-81
2022/09/09 01:29:08;;;;;;;7.45;1.77;;;13.80;99.90;;;;;;5028896;28;20025;-80
2022/09/09 01:31:51;;;;;;;3.33;1.48;;;13.80;99.90;;;;;;5040375;28;20395;-80
2022/09/09 01:34:17;;;;;;;4.47;1.33;;;13.80;99.90;;;;;;5046904;28;20029;-80
2022/09/09 01:36:58;;;;;;;5.78;1.50;;;13.80;99.90;;;;;;5053602;28;20367;-81
2022/09/09 01:39:24;;;;;;;3.20;1.42;;;13.70;99.90;;;;;;5053448;28;20051;-80
2022/09/09 01:41:50;;;;;;;7.57;1.60;;;13.70;99.90;;;;;;5047316;28;20029;-81
2022/09/09 01:44:18;;;;;;;5.78;1.55;;;13.70;99.90;;;;;;5047768;28;20032;-81
2022/09/09 01:46:43;;;;;;;3.08;1.40;;;13.70;99.90;;;;;;5045839;28;20036;-81
2022/09/09 01:49:09;;;;;;;6.28;1.80;;;13.70;99.90;;;;;;5053106;28;20025;-81
2022/09/09 01:51:38;;;;;;;4.72;1.80;;;13.70;99.90;;;;;;5049425;28;20352;-81
2022/09/09 01:54:04;;;;;;;2.15;1.67;;;13.60;99.90;;;;;;5050320;28;20031;-80
2022/09/09 01:56:42;;;;;;;3.30;1.70;;;13.60;99.90;;;;;;5053302;28;20049;-80
2022/09/09 01:59:14;;;;;;;3.53;1.65;;;13.60;99.90;;;;;;5053086;28;20033;-81
2022/09/09 02:01:50;;;;;;;4.05;1.77;;;13.60;99.90;;;;;;5049186;28;20029;-80
2022/09/09 02:04:39;;;;;;;4.45;1.60;;;13.60;99.90;;;;;;5049924;28;20029;-80
2022/09/09 02:07:28;;;;;;;2.75;1.50;;;13.60;99.90;;;;;;5053474;28;20036;-80
2022/09/09 02:10:16;;;;;;;3.42;1.88;;;13.60;99.90;;;;;;5027108;28;20394;-80
2022/09/09 02:12:46;;;;;;;2.72;1.33;;;13.60;99.90;;;;;;5042174;28;20099;-81
2022/09/09 02:15:26;;;;;;;4.50;1.80;;;13.50;99.90;;;;;;5047017;28;20037;-80
2022/09/09 02:17:53;;;;;;;4.30;1.50;;;13.60;99.90;;;;;;5037596;28;20049;-81
2022/09/09 02:20:19;;;;;;;6.78;1.77;;;13.50;99.90;;;;;;5053329;28;20541;-80
2022/09/09 02:22:50;;;;;;;6.57;1.65;;;13.50;99.90;;;;;;5038894;28;20355;-80
2022/09/09 02:25:19;;;;;;;4.20;1.52;;;13.50;99.90;;;;;;5049705;28;20413;-80
2022/09/09 02:27:47;;;;;;;3.38;1.70;;;13.50;99.90;;;;;;5043889;28;20094;-81
2022/09/09 02:30:14;;;;;;;6.72;1.67;;;13.50;99.90;;;;;;5022837;28;20764;-80
2022/09/09 02:32:42;;;;;;;2.13;1.60;;;13.50;99.90;;;;;;5037914;28;20030;-80
2022/09/09 02:35:11;;;;;;;5.60;1.65;;;13.50;99.90;;;;;;5048297;28;20021;-80
2022/09/09 02:37:42;;;;;;;2.65;1.60;;;13.50;99.90;;;;;;5049928;28;20031;-80
2022/09/09 02:40:10;;;;;;;3.40;1.80;;;13.50;99.90;;;;;;5049190;28;20021;-80
2022/09/09 02:42:45;;;;;;;4.40;1.52;;;13.50;99.90;;;;;;5045236;28;20086;-80
2022/09/09 02:45:13;;;;;;;5.28;1.50;;;13.40;99.90;;;;;;5036348;28;20478;-81
2022/09/09 02:47:52;;;;;;;3.17;1.40;;;13.40;99.90;;;;;;5048940;28;20037;-80
2022/09/09 02:50:32;;;;;;;3.50;1.58;;;13.30;99.90;;;;;;5041481;28;20846;-80
2022/09/09 02:53:17;;;;;;;4.80;1.60;;;13.40;99.90;;;;;;5033990;28;20056;-80
2022/09/09 02:55:50;;;;;;;4.82;1.55;;;13.30;99.90;;;;;;5049464;28;20406;-81
2022/09/09 02:58:18;;;;;;;3.22;1.48;;;13.30;99.90;;;;;;5049015;28;20048;-80
2022/09/09 03:00:46;;;;;;;4.30;1.40;;;13.20;99.90;;;;;;5049078;28;20029;-80
2022/09/09 03:03:12;;;;;;;5.55;1.42;;;13.30;99.90;;;;;;5035796;28;20032;-80
2022/09/09 03:05:38;;;;;;;4.43;1.60;;;13.20;99.90;;;;;;5043058;28;20081;-80
2022/09/09 03:08:05;;;;;;;2.55;1.58;;;13.30;99.90;;;;;;5048625;28;20021;-80
2022/09/09 03:10:31;;;;;;;3.28;1.50;;;13.30;99.90;;;;;;5049389;28;20060;-80
2022/09/09 03:12:57;;;;;;;7.15;2.00;;;13.30;99.90;;;;;;5036501;28;20410;-80
2022/09/09 03:15:23;;;;;;;5.18;2.00;;;13.20;99.90;;;;;;5049226;28;20029;-81
2022/09/09 03:17:48;;;;;;;4.30;1.67;;;13.30;99.90;;;;;;5049068;28;20037;-80
2022/09/09 03:20:14;;;;;;;4.70;1.65;;;13.30;99.90;;;;;;5049241;28;20105;-80
2022/09/09 03:22:40;;;;;;;3.65;1.50;;;13.20;99.90;;;;;;5035489;28;20026;-80
2022/09/09 03:25:06;;;;;;;5.32;1.80;;;13.20;99.90;;;;;;5037245;28;20086;-80
2022/09/09 03:27:32;;;;;;;6.45;1.70;;;13.20;99.90;;;;;;5048844;28;20040;-80
2022/09/09 03:29:58;;;;;;;6.95;1.77;;;13.20;99.90;;;;;;5043664;28;20025;-80
2022/09/09 03:32:25;;;;;;;5.45;2.25;;;13.20;99.90;;;;;;5037008;28;20037;-80
2022/09/09 03:34:51;;;;;;;3.33;1.40;;;13.20;99.90;;;;;;5028608;28;20018;-80
2022/09/09 03:37:18;;;;;;;5.75;1.60;;;13.20;99.90;;;;;;5029468;28;20497;-80
2022/09/09 03:39:44;;;;;;;3.67;1.70;;;13.20;99.90;;;;;;5028305;28;20033;-80
2022/09/09 03:42:13;;;;;;;3.22;1.70;;;13.20;99.90;;;;;;5028518;28;20116;-80
2022/09/09 03:44:39;;;;;;;3.33;1.50;;;13.20;99.90;;;;;;5028323;28;20037;-80
2022/09/09 03:47:06;;;;;;;3.65;1.63;;;13.30;99.90;;;;;;5044074;28;20025;-80
2022/09/09 03:49:31;;;;;;;2.17;1.38;;;13.30;99.90;;;;;;5047110;28;20408;-80
2022/09/09 03:51:58;;;;;;;5.53;1.58;;;13.30;99.90;;;;;;5029173;28;20029;-80
2022/09/09 03:54:24;;;;;;;4.40;1.50;;;13.40;99.90;;;;;;5049262;28;20033;-80
2022/09/09 03:56:50;;;;;;;4.30;1.90;;;13.40;99.90;;;;;;5050016;28;20045;-80
2022/09/09 03:59:15;;;;;;;3.95;1.27;;;13.50;99.90;;;;;;5049916;28;20037;-80
2022/09/09 04:01:41;;;;;;;3.13;1.58;;;13.50;99.90;;;;;;5039346;28;20068;-80
2022/09/09 04:04:07;;;;;;;2.75;1.48;;;13.60;99.90;;;;;;5049032;28;20107;-80
2022/09/09 04:06:32;;;;;;;3.40;1.48;;;13.70;99.90;;;;;;5049000;28;20024;-80
2022/09/09 04:08:58;;;;;;;4.57;1.83;;;13.70;99.90;;;;;;5041052;28;20038;-81
2022/09/09 04:11:24;;;;;;;5.78;1.58;;;13.70;99.90;;;;;;5040625;28;20472;-80
2022/09/09 04:13:49;;;;;;;2.40;1.30;;;13.80;99.90;;;;;;5052556;28;20482;-80
2022/09/09 04:16:15;;;;;;;3.60;1.50;;;13.80;99.90;;;;;;5052798;28;20059;-80
2022/09/09 04:18:41;;;;;;;2.75;1.23;;;13.90;99.90;;;;;;5049794;28;20117;-80
2022/09/09 04:21:09;;;;;;;5.03;1.45;;;13.90;99.90;;;;;;5043107;28;20478;-80
2022/09/09 04:23:35;;;;;;;5.18;1.50;;;13.90;99.90;;;;;;5050474;28;20120;-80
2022/09/09 04:26:02;;;;;;;2.97;1.60;;;13.90;99.90;;;;;;5050064;28;20683;-80
2022/09/09 04:28:30;;;;;;;3.60;1.60;;;13.90;99.90;;;;;;5049308;28;20090;-80
2022/09/09 04:30:56;;;;;;;3.35;2.08;;;13.90;99.90;;;;;;5046384;28;20021;-80
2022/09/09 04:33:27;;;;;;;6.95;1.58;;;13.90;99.90;;;;;;5047729;28;20159;-80
2022/09/09 04:35:53;;;;;;;2.53;1.40;;;13.90;99.90;;;;;;5049772;28;20037;-80
2022/09/09 04:38:19;;;;;;;4.07;1.40;;;13.90;99.90;;;;;;5049819;28;20028;-80
2022/09/09 04:40:48;;;;;;;2.95;1.70;;;13.90;99.90;;;;;;5040190;28;20442;-80
2022/09/09 04:43:15;;;;;;;6.32;1.70;;;13.80;99.90;;;;;;5043696;28;20040;-80
2022/09/09 04:45:46;;;;;;;3.08;1.40;;;13.80;99.90;;;;;;5032599;28;20033;-80
2022/09/09 04:48:12;;;;;;;3.85;1.48;;;13.80;99.90;;;;;;5049118;28;20033;-80
2022/09/09 04:50:37;;;;;;;3.40;1.63;;;13.80;99.90;;;;;;5047088;28;20031;-80
2022/09/09 04:53:04;;;;;;;1.70;1.48;;;13.80;99.90;;;;;;5036665;28;20397;-80
2022/09/09 04:55:31;;;;;;;3.80;1.42;;;13.80;99.90;;;;;;5047740;28;20047;-80
2022/09/09 04:57:57;;;;;;;7.20;1.95;;;13.80;99.90;;;;;;5038790;28;20168;-80
2022/09/09 05:00:23;;;;;;;5.13;1.67;;;13.80;99.90;;;;;;5046255;28;20035;-80
2022/09/09 05:02:49;;;;;;;6.55;1.65;;;13.80;99.90;;;;;;5035037;28;20029;-80
2022/09/09 05:05:14;;;;;;;4.55;1.70;;;13.80;99.90;;;;;;5040881;28;20040;-80
2022/09/09 05:07:41;;;;;;;3.60;1.88;;;13.80;99.90;;;;;;5030445;28;20112;-80
2022/09/09 05:10:07;;;;;;;3.30;1.52;;;13.80;99.90;;;;;;5016069;28;20028;-80
2022/09/09 05:12:33;;;;;;;3.20;1.77;;;13.80;99.90;;;;;;5030314;28;20025;-80
2022/09/09 05:14:58;;;;;;;5.28;1.73;;;13.80;99.90;;;;;;5036827;28;20048;-80
2022/09/09 05:17:24;;;;;;;4.65;1.77;;;13.80;99.90;;;;;;5046427;28;20043;-80
2022/09/09 05:19:49;;;;;;;2.92;1.60;;;13.80;99.90;;;;;;5038034;28;20029;-80
2022/09/09 05:22:20;;;;;;;4.75;1.90;;;13.80;99.90;;;;;;5040599;28;20037;-80
2022/09/09 05:24:45;;;;;;;6.13;1.70;;;13.80;99.90;;;;;;5035034;28;20209;-80
2022/09/09 05:27:12;;;;;;;7.05;1.70;;;13.80;99.90;;;;;;5039506;28;20049;-80
2022/09/09 05:29:37;;;;;;;4.30;1.55;;;13.80;99.90;;;;;;5027584;28;20850;-80
2022/09/09 05:32:04;;;;;;;2.97;1.42;;;13.80;99.90;;;;;;5028015;28;20021;-80
2022/09/09 05:34:29;;;;;;;3.67;1.80;;;13.80;99.90;;;;;;5027009;28;20549;-80
2022/09/09 05:36:55;;;;;;;2.28;1.30;;;13.90;99.90;;;;;;5026732;28;20021;-80
2022/09/09 05:39:20;;;;;;;3.55;1.35;;;13.90;99.90;;;;;;5027226;28;20040;-80
2022/09/09 05:41:46;;;;;;;6.18;2.08;;;14.00;99.90;;;;;;5027040;28;20083;-80
2022/09/09 05:44:12;;;;;;;5.88;1.77;;;14.00;99.90;;;;;;5032310;28;20448;-80
2022/09/09 05:46:37;;;;;;;2.92;1.35;;;14.10;99.90;;;;;;5029901;28;20098;-80
2022/09/09 05:49:05;;;;;;;4.15;1.20;;;14.20;99.90;;;;;;5046354;28;20999;-80
2022/09/09 05:51:30;;;;;;;4.22;1.60;;;14.20;99.90;;;;;;5041893;28;20810;-80
2022/09/09 05:53:59;;;;;;;4.07;1.60;;;14.30;99.90;;;;;;5033479;28;20124;-80
2022/09/09 05:56:26;;;;;;;4.80;1.90;;;14.30;99.90;;;;;;5047188;28;20045;-80
2022/09/09 05:58:53;;;;;;;5.75;1.63;;;14.40;99.90;;;;;;5048462;28;20029;-80
2022/09/09 06:01:24;;;;;;;3.15;1.23;;;14.40;99.90;;;;;;5051619;28;20114;-81
2022/09/09 06:03:51;;;;;;;3.00;1.40;;;14.40;99.90;;;;;;5039194;28;20029;-80
2022/09/09 06:06:23;;;;;;;4.15;1.52;;;14.50;99.90;;;;;;5031482;28;20160;-80
2022/09/09 06:08:52;;;;;;;3.58;1.65;;;14.50;99.90;;;;;;5030679;28;20033;-80
2022/09/09 06:11:23;;;;;;;3.67;1.40;;;14.50;99.90;;;;;;5040400;28;20044;-80
2022/09/09 06:13:54;;;;;;;6.07;1.88;;;14.60;99.90;;;;;;5040482;28;20025;-81
2022/09/09 06:16:23;;;;;;;4.88;1.70;;;14.60;99.90;;;;;;5037861;28;20164;-80
2022/09/09 06:18:50;;;;;;;4.97;1.60;;;14.60;99.90;;;;;;5047720;28;20044;-80
2022/09/09 06:21:21;;;;;;;3.03;1.48;;;14.70;99.90;;;;;;5032501;28;20025;-80
2022/09/09 06:23:47;;;;;;;3.88;1.38;;;14.70;99.90;;;;;;5029722;28;20033;-80
2022/09/09 06:26:22;;;;;;;4.00;1.45;;;14.80;99.90;;;;;;5030089;28;20098;-81
2022/09/09 06:28:49;;;;;;;3.45;1.40;;;14.90;99.90;;;;;;5030165;28;20029;-81
2022/09/09 06:31:17;;;;;;;4.70;1.55;;;14.90;99.90;;;;;;5030190;28;20022;-81
2022/09/09 06:33:44;;;;;;;3.35;1.50;;;15.00;99.90;;;;;;5030228;28;20033;-81
2022/09/09 06:36:39;;;;;;;4.70;1.50;;;15.10;99.90;;;;;;5029784;28;20432;-81
2022/09/09 06:39:06;;;;;;;4.25;1.40;;;15.20;99.90;;;;;;5029318;28;20141;-81
2022/09/09 06:41:32;;;;;;;6.13;1.35;;;15.20;99.90;;;;;;5029886;28;20107;-81
2022/09/09 06:43:58;;;;;;;4.47;1.50;;;15.30;99.90;;;;;;5029488;28;20053;-81
2022/09/09 06:46:30;;;;;;;3.90;1.33;;;15.30;99.90;;;;;;5033834;28;20064;-81
2022/09/09 06:48:57;;;;;;;6.60;1.40;;;15.40;99.90;;;;;;5045764;28;20048;-81
2022/09/09 06:51:24;;;;;;;4.07;1.23;;;15.40;99.90;;;;;;5046669;28;20025;-80
2022/09/09 06:53:55;;;;;;;3.60;1.35;;;15.40;99.90;;;;;;5049543;28;20478;-80
2022/09/09 06:56:29;;;;;;;3.78;1.40;;;15.50;99.90;;;;;;5037698;28;20055;-80
2022/09/09 06:58:58;;;;;;;3.05;1.48;;;15.50;99.90;;;;;;5033437;28;20075;-80
2022/09/09 07:01:27;;;;;;;4.72;1.48;;;15.50;99.90;;;;;;5029194;28;20061;-80
2022/09/09 07:03:58;;;;;;;3.13;1.50;;;15.40;99.90;;;;;;5030207;28;20037;-80
2022/09/09 07:06:30;;;;;;;2.88;1.40;;;15.40;99.90;;;;;;5022024;28;20032;-80
2022/09/09 07:09:06;;;;;;;3.05;1.63;;;15.40;99.90;;;;;;5048813;28;20385;-80
2022/09/09 07:11:39;;;;;;;3.63;1.60;;;15.40;99.90;;;;;;5022373;28;20102;-80
2022/09/09 07:14:04;;;;;;;2.75;1.60;;;15.40;99.90;;;;;;5047030;28;20114;-80
2022/09/09 07:16:33;;;;;;;4.78;2.08;;;15.50;99.90;;;;;;5042087;28;20148;-80
2022/09/09 07:19:00;;;;;;;6.57;2.25;;;15.60;99.90;;;;;;5048410;28;20465;-80
2022/09/09 07:21:27;;;;;;;4.68;1.45;;;15.70;99.90;;;;;;5035549;28;20094;-80
2022/09/09 07:23:53;;;;;;;3.17;1.50;;;16.00;99.90;;;;;;5049362;28;20037;-81
2022/09/09 07:26:22;;;;;;;6.13;1.50;;;16.10;99.90;;;;;;5046450;28;20425;-80
2022/09/09 07:28:48;;;;;;;3.75;1.50;;;16.30;99.90;;;;;;5045770;28;20033;-81
2022/09/09 07:31:20;;;;;;;6.70;1.65;;;16.50;99.90;;;;;;5034708;28;20041;-81
2022/09/09 07:33:47;;;;;;;6.75;1.30;;;16.70;99.90;;;;;;5049343;28;20025;-80
2022/09/09 07:36:15;;;;;;;2.83;1.65;;;16.80;99.90;;;;;;5042067;28;20041;-81
2022/09/09 07:38:46;;;;;;;4.18;1.45;;;17.00;99.90;;;;;;5033342;28;20061;-80
2022/09/09 07:41:19;;;;;;;3.45;1.35;;;17.20;99.90;;;;;;5028652;28;20033;-80
2022/09/09 07:43:47;;;;;;;4.13;1.35;;;17.20;99.90;;;;;;5028517;28;20111;-80
2022/09/09 07:46:14;;;;;;;6.57;1.75;;;17.40;99.90;;;;;;5036293;28;20403;-80
2022/09/09 07:48:51;;;;;;;5.45;1.70;;;17.50;99.90;;;;;;5028333;28;20034;-81
2022/09/09 07:51:23;;;;;;;4.93;1.30;;;17.60;99.90;;;;;;5028371;28;20403;-81
2022/09/09 07:53:53;;;;;;;2.38;1.30;;;17.70;99.90;;;;;;5027989;28;20044;-81
2022/09/09 07:56:22;;;;;;;1.95;1.10;;;17.80;99.90;;;;;;5028459;28;20136;-80
2022/09/09 07:58:50;;;;;;;2.50;1.20;;;17.80;99.90;;;;;;5028817;28;20021;-80
2022/09/09 08:01:19;;;;;;;2.20;1.25;;;17.80;99.90;;;;;;5028072;28;20088;-81
2022/09/09 08:03:47;;;;;;;4.82;1.40;;;17.70;99.90;;;;;;5037723;28;20390;-81
2022/09/09 08:06:13;;;;;;;2.30;1.30;;;17.70;99.90;;;;;;5029603;28;20528;-80
2022/09/09 08:08:41;;;;;;;4.63;1.35;;;17.70;99.90;;;;;;5026993;28;20057;-80
2022/09/09 08:11:12;;;;;;;3.05;1.20;;;17.60;99.90;;;;;;5039614;28;20017;-81
2022/09/09 08:13:39;;;;;;;5.68;1.50;;;17.60;99.90;;;;;;5027627;28;20120;-80
2022/09/09 08:16:07;;;;;;;6.63;1.42;;;17.50;99.90;;;;;;5027268;28;20639;-80
2022/09/09 08:18:33;;;;;;;4.15;1.60;;;17.40;99.90;;;;;;5027838;28;20021;-80
2022/09/09 08:21:05;;;;;;;3.13;1.27;;;17.40;99.90;;;;;;5026910;28;20129;-81
2022/09/09 08:23:31;;;;;;;2.00;1.23;;;17.30;99.90;;;;;;5027955;28;20040;-81
2022/09/09 08:26:09;;;;;;;4.43;1.70;;;17.30;99.90;;;;;;5027669;28;20025;-81
2022/09/09 08:28:34;;;;;;;4.10;1.77;;;17.20;99.90;;;;;;5017618;28;20525;-81
2022/09/09 08:31:07;;;;;;;2.78;1.60;;;17.20;99.90;;;;;;5026481;28;20029;-81
2022/09/09 08:33:33;;;;;;;3.90;1.63;;;17.10;99.90;;;;;;5027685;28;20742;-80
2022/09/09 08:35:59;;;;;;;2.35;1.60;;;17.10;99.90;;;;;;5027548;28;20058;-81
2022/09/09 08:38:24;;;;;;;3.72;1.63;;;17.10;99.90;;;;;;5031455;28;20040;-81
2022/09/09 08:40:59;;;;;;;4.50;1.70;;;17.10;99.90;;;;;;5028001;28;20033;-81
2022/09/09 08:43:25;;;;;;;3.03;1.60;;;17.10;99.90;;;;;;5024321;28;20025;-81
2022/09/09 08:45:57;;;;;;;5.15;1.90;;;17.20;99.90;;;;;;5031701;28;20033;-81
2022/09/09 08:48:46;;;;;;;3.13;1.60;;;17.20;99.90;;;;;;5047979;28;20462;-81
2022/09/09 08:51:13;;;;;;;7.13;1.67;;;17.40;99.90;;;;;;5021933;28;20086;-81
2022/09/09 08:53:49;;;;;;;3.13;1.60;;;17.50;99.90;;;;;;5042922;28;20036;-81
2022/09/09 08:56:21;;;;;;;5.18;2.30;;;17.60;99.90;;;;;;5020304;28;20848;-81
2022/09/09 08:58:50;;;;;;;5.40;1.85;;;17.80;99.90;;;;;;5047660;28;20033;-81
2022/09/09 09:01:39;;;;;;;3.72;1.73;;;17.80;99.90;;;;;;5047436;28;20544;-81
2022/09/09 09:04:48;;;;;;;3.30;1.45;;;18.00;99.90;;;;;;5040523;28;20025;-81
2022/09/09 09:08:06;;;;;;;3.90;1.45;;;18.20;99.90;;;;;;5042870;28;20037;-81
2022/09/09 09:10:44;;;;;;;6.43;1.60;;;18.30;99.90;;;;;;4990017;28;20067;-81
2022/09/09 09:13:18;;;;;;;2.90;1.60;;;18.50;99.90;;;;;;5027696;28;20052;-81
2022/09/09 09:15:46;;;;;;;4.03;1.73;;;18.60;99.90;;;;;;5021637;28;20029;-81
2022/09/09 09:18:13;;;;;;;2.65;1.20;;;18.60;99.90;;;;;;5031768;28;20035;-81
2022/09/09 09:21:15;;;;;;;4.35;1.35;;;18.70;99.90;;;;;;5030397;28;20034;-81
2022/09/09 09:23:50;;;;;;;4.00;1.15;;;18.70;99.90;;;;;;5004775;28;20018;-81
2022/09/09 09:26:18;;;;;;;2.40;1.20;;;18.60;99.90;;;;;;5024343;28;20049;-81
2022/09/09 09:28:44;;;;;;;2.85;1.20;;;18.60;99.90;;;;;;5028083;28;20418;-81
2022/09/09 09:31:11;;;;;;;6.70;1.60;;;18.60;99.90;;;;;;5026789;28;20033;-81
2022/09/09 09:33:56;;;;;;;2.53;1.45;;;18.60;99.90;;;;;;5029930;28;20026;-81
2022/09/09 09:36:25;;;;;;;3.67;1.40;;;18.60;99.90;;;;;;5030448;28;20072;-80
2022/09/09 09:38:59;;;;;;;5.45;1.60;;;18.40;99.90;;;;;;5030821;28;20036;-81
2022/09/09 09:41:43;;;;;;;4.05;1.60;;;18.30;99.90;;;;;;5029244;28;20390;-80
2022/09/09 09:44:30;;;;;;;4.10;1.45;;;18.30;99.90;;;;;;5031227;28;20120;-81
2022/09/09 09:47:26;;;;;;;5.63;1.40;;;18.20;99.90;;;;;;5042792;28;20033;-81
2022/09/09 09:49:58;;;;;;;3.00;1.38;;;18.20;99.90;;;;;;5036993;28;20048;-81
2022/09/09 09:52:29;;;;;;;2.60;1.35;;;18.20;99.90;;;;;;5030254;28;20091;-81
2022/09/09 09:54:57;;;;;;;3.13;1.58;;;18.10;99.90;;;;;;5033101;28;20514;-81
2022/09/09 09:57:40;;;;;;;4.50;1.38;;;18.10;99.90;;;;;;5035258;28;20058;-81
2022/09/09 10:00:20;;;;;;;4.50;1.33;;;18.00;99.90;;;;;;5030653;28;20061;-81
2022/09/09 10:02:46;;;;;;;2.42;1.40;;;18.00;99.90;;;;;;5028593;28;20108;-80
2022/09/09 10:05:14;;;;;;;4.13;1.50;;;18.00;99.90;;;;;;5030418;28;20025;-81
2022/09/09 10:07:39;;;;;;;2.85;1.30;;;18.00;99.90;;;;;;5030234;28;20470;-81
2022/09/09 10:10:11;;;;;;;2.45;1.35;;;18.00;99.90;;;;;;5031804;28;20033;-81
2022/09/09 10:13:08;;;;;;;4.15;1.63;;;18.00;99.90;;;;;;5030066;28;20445;-81
2022/09/09 10:15:40;;;;;;;8.75;1.80;;;18.10;99.90;;;;;;5026419;28;20041;-81
2022/09/09 10:18:41;;;;;;;5.25;1.45;;;18.20;99.90;;;;;;5029531;28;20025;-81
2022/09/09 10:21:40;;;;;;;3.05;1.33;;;18.30;99.90;;;;;;5030436;28;20033;-81
2022/09/09 10:24:30;;;;;;;3.97;1.50;;;18.30;99.90;;;;;;5031208;28;20030;-80
2022/09/09 10:27:20;;;;;;;3.95;1.38;;;18.40;99.90;;;;;;5032626;28;20410;-81
2022/09/09 10:29:51;;;;;;;2.05;1.10;;;18.50;99.90;;;;;;5030211;28;20037;-80
2022/09/09 10:32:47;;;;;;;4.00;1.77;;;18.60;99.90;;;;;;5030386;28;20104;-81
2022/09/09 10:35:57;;;;;;;4.20;1.25;;;18.60;99.90;;;;;;5030052;28;20067;-81
2022/09/09 10:38:38;;;;;;;2.78;1.40;;;18.60;99.90;;;;;;5032059;28;20044;-80
2022/09/09 10:41:38;;;;;;;4.47;1.48;;;18.70;99.90;;;;;;5031088;28;20033;-81
2022/09/09 10:44:52;;;;;;;3.45;1.40;;;18.80;99.90;;;;;;5030100;28;20537;-81
2022/09/09 10:47:50;;;;;;;4.32;1.30;;;18.90;99.90;;;;;;5048825;28;20393;-80
2022/09/09 10:50:25;;;;;;;3.05;1.35;;;18.90;99.90;;;;;;5024169;28;20370;-80
2022/09/09 10:52:59;;;;;;;5.38;1.50;;;19.00;99.90;;;;;;5027319;28;20044;-80
2022/09/09 10:55:31;;;;;;;4.27;1.30;;;19.10;99.90;;;;;;5041977;28;20533;-80
2022/09/09 10:58:00;;;;;;;5.18;2.13;;;19.20;99.90;;;;;;5044659;28;20082;-80
2022/09/09 11:00:37;;;;;;;3.47;1.25;;;19.30;99.90;;;;;;5041948;28;20489;-80
2022/09/09 11:03:06;;;;;;;6.70;1.42;;;19.40;99.90;;;;;;5031936;28;20097;-80
2022/09/09 11:05:49;;;;;;;3.88;1.35;;;19.40;99.90;;;;;;5034032;28;20030;-80
2022/09/09 11:08:27;;;;;;;2.30;1.08;;;19.40;99.90;;;;;;5031595;28;20041;-80
2022/09/09 11:11:03;;;;;;;1.58;1.13;;;19.40;99.90;;;;;;5032769;28;20029;-80
2022/09/09 11:13:48;;;;;;;5.13;1.20;;;19.50;99.90;;;;;;5031616;28;20025;-80
2022/09/09 11:16:29;;;;;;;2.30;1.20;;;19.50;99.90;;;;;;5028607;28;20025;-80
2022/09/09 11:19:02;;;;;;;1.52;1.00;;;19.80;99.90;;;;;;5030460;28;20030;-80
2022/09/09 11:21:57;;;;;;;3.80;1.35;;;19.90;99.90;;;;;;5031058;28;20382;-80
2022/09/09 11:24:23;;;;;;;2.78;1.02;;;20.10;99.90;;;;;;5031053;28;20096;-80
2022/09/09 11:26:58;;;;;;;2.90;1.20;;;20.60;99.90;;;;;;5030070;28;20072;-80
2022/09/09 11:29:44;;;;;;;3.08;1.00;;;20.70;99.90;;;;;;5030328;28;20501;-80
2022/09/09 11:32:43;;;;;;;4.05;1.20;;;21.00;99.90;;;;;;5029364;28;20060;-80
2022/09/09 11:35:47;;;;;;;2.13;0.90;;;21.10;99.90;;;;;;5030644;28;20096;-80
2022/09/09 11:38:39;;;;;;;2.58;1.25;;;21.10;99.90;;;;;;5030632;28;20398;-80
2022/09/09 11:41:08;;;;;;;1.83;0.90;;;21.20;99.90;;;;;;5022590;28;20022;-80
2022/09/09 11:43:42;;;;;;;5.00;1.23;;;21.60;99.90;;;;;;5028877;28;20053;-80
2022/09/09 11:46:09;;;;;;;1.73;1.00;;;21.90;99.90;;;;;;5036761;28;20021;-81
2022/09/09 11:48:46;;;;;;;3.70;1.13;;;22.00;99.90;;;;;;5035836;28;20561;-80
2022/09/09 11:51:33;;;;;;;3.30;1.13;;;21.70;99.90;;;;;;5023419;28;20060;-81
2022/09/09 11:54:04;;;;;;;2.97;1.05;;;21.60;99.90;;;;;;5044978;28;20033;-80
2022/09/09 11:56:48;;;;;;;3.05;1.15;;;21.60;99.90;;;;;;5038405;28;20120;-80
2022/09/09 11:59:24;;;;;;;2.42;1.00;;;21.50;99.90;;;;;;5024746;28;20394;-81
2022/09/09 12:02:19;;;;;;;3.45;1.30;;;21.50;99.90;;;;;;5041644;28;20033;-80
2022/09/09 12:05:08;;;;;;;3.50;1.20;;;21.20;99.90;;;;;;5048615;28;20025;-81
2022/09/09 12:07:42;;;;;;;3.33;1.00;;;20.90;99.90;;;;;;5034404;28;20090;-81
2022/09/09 12:10:30;;;;;;;3.80;1.17;;;20.70;99.90;;;;;;5035958;28;20039;-80
2022/09/09 12:13:07;;;;;;;3.22;1.08;;;20.70;99.90;;;;;;5046487;28;20024;-81
2022/09/09 12:15:32;;;;;;;3.85;1.15;;;20.70;99.90;;;;;;5048305;28;20040;-81
2022/09/09 12:18:00;;;;;;;6.38;1.60;;;20.80;99.90;;;;;;5048746;28;20090;-81
2022/09/09 12:20:36;;;;;;;2.72;1.27;;;21.00;99.90;;;;;;5039388;28;20079;-81
2022/09/09 12:23:35;;;;;;;5.45;1.20;;;21.10;99.90;;;;;;5041918;28;20762;-81
2022/09/09 12:26:26;;;;;;;3.83;1.08;;;21.20;99.90;;;;;;5034850;28;20025;-81
2022/09/09 12:29:11;;;;;;;1.45;1.00;;;21.50;99.90;;;;;;5036097;28;20070;-81
2022/09/09 12:32:03;;;;;;;2.35;0.80;;;21.60;99.90;;;;;;5034332;28;20021;-81
2022/09/09 12:34:37;;;;;;;5.45;1.13;;;21.70;99.90;;;;;;5027265;28;20025;-81
2022/09/09 12:37:26;;;;;;;;;;;21.70;99.90;;;;;;5024021;28;20032;-80
2022/09/09 12:39:55;;;;;;;2.42;1.08;;;21.80;99.90;;;;;;5022220;28;19919;-81
2022/09/09 12:42:22;;;;;;;2.15;1.00;;;21.60;99.90;;;;;;5027871;28;20426;-80
2022/09/09 12:44:56;;;;;;;7.07;1.20;;;21.70;99.90;;;;;;5022535;28;20013;-80
2022/09/09 12:47:31;;;;;;;2.45;0.85;;;21.40;99.90;;;;;;5030567;28;20386;-80
2022/09/09 12:49:57;;;;;;;3.30;1.00;;;21.30;99.90;;;;;;5038275;28;20044;-80
2022/09/09 12:52:32;;;;;;;3.17;1.00;;;21.20;99.90;;;;;;5045535;28;20029;-81
2022/09/09 12:54:58;;;;;;;;;;;21.10;99.90;;;;;;5048287;28;20020;-81
2022/09/09 12:57:26;;;;;;;5.15;1.45;;;21.00;99.90;;;;;;5047530;28;20350;-81
2022/09/09 12:59:53;;;;;;;5.55;1.20;;;20.90;99.90;;;;;;5039486;28;20115;-81
2022/09/09 13:02:20;;;;;;;2.58;1.05;;;20.90;99.90;;;;;;5044409;28;20418;-81
2022/09/09 13:04:46;;;;;;;2.60;0.90;;;20.90;99.90;;;;;;5047825;28;20025;-81
2022/09/09 13:07:13;;;;;;;3.05;1.30;;;21.00;99.90;;;;;;5047381;28;20033;-81
2022/09/09 13:09:39;;;;;;;4.03;1.70;;;21.00;99.90;;;;;;5042840;28;20076;-81
2022/09/09 13:12:13;;;;;;;5.53;1.40;;;21.10;99.90;;;;;;5037851;28;20108;-81
2022/09/09 13:14:38;;;;;;;3.60;1.10;;;21.00;99.90;;;;;;5025734;28;20898;-81
2022/09/09 13:17:06;;;;;;;4.82;1.15;;;21.00;99.90;;;;;;5027441;28;20041;-81
2022/09/09 13:19:37;;;;;;;4.38;1.30;;;20.90;99.90;;;;;;5027317;28;20032;-81